Strona główna
METAR-TAF:

METAR-TAF

Lotnisko :

Port lotniczy Koror

Koror, Babeldaob, Palau

Szerokość geograficzna: 07-22N, Długość geograficzna: 134-32E, wysokość: 54 m

Aktualna obserwacja pogody

Raport powstał 59 minut temu, godzina 09:50 UTC
Wiatr 3 kt od południowy zachód
Temperatura 28°C
Wilgotność 84%
Ciśnienie 1009 hPa
Widzialność: 22.5 km
Przerywane chmury na wysokości 1600 ft, Cumulonimbus.
Przerywane chmury na wysokości 12000 ft
Zachmurzenie całkowite na wysokości 30000 ft

METAR: PTRO 180950Z 22003KT 14SM BKN016CB BKN120 OVC300 28/25 A2979 RMK CB ALQDS

czas: 19:49 (10:49 UTC)

Prognoza

Raport powstał 5 godziny i 26 minut temu, godzina 05:23 UTC
Prognoza ważna od 18 godzina 06 UTC do 19 godzina 06 UTC
Wiatr 7 kt od południowy wschód
Widzialność: 10 km
Rozproszone chmury na wysokości 1600 ft
Przerywane chmury na wysokości 12000 ft
przelotny w pobliże

TAF: PTRO 180523Z 1806/1906 14007KT P6SM VCSH SCT016 BKN120

Obserwacja i prognoza pogody dla ponad 4000 lotnisk (raport METAR i TAF).

Dostępne stacje oznaczono żółtymi i czerwonymi punktami na mapie.

Najedź kursorem aby zobaczyć nazwę stacji.

Kliknij aby zobaczyć obserwacje i prognozy pogody.

Aby zmienić mapę: kliknij na zielony przycisk z czarnym krzyżykiem, aby powiększyć; na zielony przycisk z myślnikiem, aby pomniejszyć; na zielone strzałki, aby przejść do map sąsiednich.


METAR-TAF: